Time;durP1;ratioP1;P1;durP2;ratioP2;P2;SDS_P1;SDS_P2;PMS_P1;PMS_P2;Temp;Humidity;BMP_temperature;BMP_pressure;BME280_temperature;BME280_humidity;BME280_pressure;Samples;Min_cycle;Max_cycle;Signal;HPM_P1;HPM_P2
2022/05/06 00:00:18;;;;;;;13.57;2.38;;;19.60;86.60;;;;;;5052218;28;20025;-77
2022/05/06 00:02:44;;;;;;;14.63;2.05;;;19.60;86.30;;;;;;5051010;28;20126;-76
2022/05/06 00:05:13;;;;;;;11.40;2.75;;;19.60;85.90;;;;;;5050969;28;20039;-77
2022/05/06 00:07:40;;;;;;;6.88;1.70;;;19.60;85.30;;;;;;5051071;28;20025;-77
2022/05/06 00:10:07;;;;;;;9.65;2.33;;;19.70;85.20;;;;;;5050803;28;20046;-77
2022/05/06 00:12:33;;;;;;;13.95;2.40;;;19.70;85.10;;;;;;5051222;28;20024;-78
2022/05/06 00:14:59;;;;;;;9.15;2.10;;;19.80;84.40;;;;;;5050834;28;20150;-77
2022/05/06 00:17:26;;;;;;;9.35;1.90;;;19.80;84.30;;;;;;5050789;28;20059;-77
2022/05/06 00:19:52;;;;;;;22.23;2.35;;;19.80;83.80;;;;;;5050959;28;20066;-77
2022/05/06 00:22:18;;;;;;;10.35;1.75;;;19.80;84.00;;;;;;5039955;28;20108;-78
2022/05/06 00:24:44;;;;;;;15.45;2.05;;;19.80;84.10;;;;;;5029541;28;20029;-77
2022/05/06 00:27:10;;;;;;;13.10;2.47;;;19.80;84.10;;;;;;5031063;28;20419;-77
2022/05/06 00:29:37;;;;;;;;;;;19.80;84.40;;;;;;5031061;28;20037;-77
2022/05/06 00:32:03;;;;;;;12.23;2.45;;;19.70;84.30;;;;;;5031064;28;20000;-77
2022/05/06 00:34:29;;;;;;;10.13;2.30;;;19.70;84.50;;;;;;5044388;28;20037;-77
2022/05/06 00:36:55;;;;;;;9.05;1.90;;;19.70;83.90;;;;;;5050953;28;20021;-77
2022/05/06 00:39:22;;;;;;;13.80;2.40;;;19.70;83.70;;;;;;5049328;28;20121;-77
2022/05/06 00:41:51;;;;;;;9.90;3.30;;;19.70;83.70;;;;;;5050774;28;20755;-77
2022/05/06 00:44:17;;;;;;;7.90;1.70;;;19.70;83.70;;;;;;5049409;28;20139;-77
2022/05/06 00:46:44;;;;;;;13.00;2.37;;;19.70;83.50;;;;;;5049115;28;20137;-77
2022/05/06 00:49:11;;;;;;;25.83;2.95;;;19.70;83.70;;;;;;5050938;28;20437;-78
2022/05/06 00:51:39;;;;;;;9.05;2.22;;;19.60;83.60;;;;;;5052366;28;20079;-77
2022/05/06 00:54:07;;;;;;;22.63;2.58;;;19.70;83.10;;;;;;5054623;28;20041;-77
2022/05/06 00:56:33;;;;;;;6.35;1.70;;;19.70;83.40;;;;;;5054222;28;20025;-77
2022/05/06 00:58:59;;;;;;;15.10;2.58;;;19.60;83.20;;;;;;5054574;28;20518;-77
2022/05/06 01:01:25;;;;;;;13.83;2.40;;;19.60;82.90;;;;;;5054629;28;20025;-77
2022/05/06 01:03:52;;;;;;;13.73;3.23;;;19.60;82.40;;;;;;5052554;28;20361;-78
2022/05/06 01:06:18;;;;;;;11.70;2.10;;;19.60;82.10;;;;;;5054079;28;20306;-77
2022/05/06 01:08:44;;;;;;;16.77;2.58;;;19.70;81.90;;;;;;5049483;28;20461;-77
2022/05/06 01:11:14;;;;;;;14.82;1.98;;;19.80;80.20;;;;;;5035694;28;20453;-77
2022/05/06 01:13:41;;;;;;;10.25;2.30;;;19.90;79.60;;;;;;5053764;28;20487;-77
2022/05/06 01:16:07;;;;;;;10.35;1.95;;;20.00;79.90;;;;;;5054076;28;20108;-77
2022/05/06 01:18:33;;;;;;;14.43;2.28;;;20.00;79.50;;;;;;5054049;28;20036;-78
2022/05/06 01:21:02;;;;;;;17.10;2.05;;;20.00;79.60;;;;;;5053867;28;20036;-76
2022/05/06 01:23:28;;;;;;;18.52;2.40;;;20.00;79.30;;;;;;5053937;28;20071;-78
2022/05/06 01:25:54;;;;;;;12.80;1.95;;;20.00;79.20;;;;;;5043990;28;20441;-77
2022/05/06 01:28:25;;;;;;;17.20;2.70;;;20.10;78.50;;;;;;5033740;28;20429;-78
2022/05/06 01:31:00;;;;;;;14.85;2.35;;;20.10;78.60;;;;;;5033924;28;20367;-76
2022/05/06 01:33:30;;;;;;;15.98;2.95;;;20.00;78.80;;;;;;5033819;28;20072;-77
2022/05/06 01:36:01;;;;;;;18.90;2.80;;;20.00;79.20;;;;;;5033981;28;20026;-77
2022/05/06 01:38:37;;;;;;;16.23;2.53;;;20.00;79.50;;;;;;5033867;28;20034;-77
2022/05/06 01:41:24;;;;;;;15.32;2.85;;;20.00;79.70;;;;;;5033769;28;20326;-77
2022/05/06 01:44:04;;;;;;;17.30;2.78;;;19.90;80.20;;;;;;5033404;28;20068;-77
2022/05/06 01:46:33;;;;;;;20.10;2.28;;;19.90;80.60;;;;;;5033535;28;20055;-77
2022/05/06 01:48:59;;;;;;;10.13;2.10;;;19.80;80.80;;;;;;5031946;28;20070;-77
2022/05/06 01:51:27;;;;;;;20.20;2.50;;;19.80;80.60;;;;;;5033181;28;20120;-77
2022/05/06 01:53:53;;;;;;;14.48;2.47;;;19.90;80.80;;;;;;5031675;28;20034;-77
2022/05/06 01:56:20;;;;;;;10.17;2.27;;;19.80;81.30;;;;;;5033171;28;20029;-76
2022/05/06 01:58:47;;;;;;;12.25;2.05;;;19.80;82.20;;;;;;5033465;28;20333;-77
2022/05/06 02:01:13;;;;;;;16.42;2.00;;;19.80;82.60;;;;;;5033004;28;20018;-77
2022/05/06 02:06:23;;;;;;;12.40;2.38;;;19.70;83.20;;;;;;5033092;28;20037;-77
2022/05/06 02:08:49;;;;;;;12.07;2.45;;;19.70;83.60;;;;;;5031468;28;20044;-76
2022/05/06 02:11:16;;;;;;;12.27;2.30;;;19.60;83.70;;;;;;5032905;28;20021;-77
2022/05/06 02:13:42;;;;;;;18.23;2.88;;;19.70;84.10;;;;;;5031315;28;20299;-77
2022/05/06 02:16:08;;;;;;;18.90;3.45;;;19.60;84.20;;;;;;5032735;28;20180;-77
2022/05/06 02:18:34;;;;;;;19.27;2.83;;;19.60;84.80;;;;;;5032793;28;20496;-78
2022/05/06 02:21:01;;;;;;;11.97;2.53;;;19.50;85.10;;;;;;5032649;28;20794;-77
2022/05/06 02:23:28;;;;;;;19.02;2.85;;;19.60;84.70;;;;;;5032932;28;20282;-77
2022/05/06 02:25:54;;;;;;;15.85;2.47;;;19.60;84.40;;;;;;5032626;28;20454;-77
2022/05/06 02:28:20;;;;;;;13.50;2.60;;;19.60;84.40;;;;;;5031143;28;20033;-77
2022/05/06 02:33:31;;;;;;;12.38;2.60;;;19.50;85.40;;;;;;5032920;28;20091;-77
2022/05/06 02:35:58;;;;;;;;;;;19.50;86.20;;;;;;5032331;28;20104;-77
2022/05/06 02:38:25;;;;;;;;;;;19.40;87.00;;;;;;5032706;28;20218;-77
2022/05/06 02:40:51;;;;;;;26.55;3.58;;;19.30;87.70;;;;;;5031811;28;19916;-77
2022/05/06 02:43:17;;;;;;;19.75;3.50;;;19.30;88.00;;;;;;5031891;28;20025;-77
2022/05/06 02:45:44;;;;;;;19.45;3.22;;;19.20;88.20;;;;;;5031891;28;20069;-77
2022/05/06 02:48:11;;;;;;;17.42;2.85;;;19.20;88.40;;;;;;5031623;28;20064;-77
2022/05/06 02:50:37;;;;;;;23.45;4.25;;;19.20;88.20;;;;;;5033935;28;20022;-77
2022/05/06 02:53:04;;;;;;;27.25;3.58;;;19.20;88.50;;;;;;5030155;28;20033;-78
2022/05/06 02:55:32;;;;;;;21.77;3.42;;;19.20;88.80;;;;;;5031440;28;20022;-77
2022/05/06 02:57:58;;;;;;;21.42;2.97;;;19.20;89.40;;;;;;5031744;28;20146;-77
2022/05/06 03:00:26;;;;;;;21.48;3.88;;;19.10;90.00;;;;;;5031526;28;20049;-77
2022/05/06 03:02:52;;;;;;;15.57;3.38;;;19.10;90.10;;;;;;5031236;28;20033;-77
2022/05/06 03:05:18;;;;;;;21.13;3.35;;;19.10;90.30;;;;;;5029989;28;20053;-78
2022/05/06 03:07:45;;;;;;;21.10;4.00;;;19.10;90.40;;;;;;5030458;28;20479;-78
2022/05/06 03:10:11;;;;;;;19.40;3.60;;;19.10;90.60;;;;;;5032144;28;20026;-77
2022/05/06 03:12:38;;;;;;;17.55;3.42;;;19.00;90.90;;;;;;5030383;28;20033;-77
2022/05/06 03:15:05;;;;;;;28.38;4.18;;;19.00;91.00;;;;;;5031165;28;20060;-77
2022/05/06 03:17:32;;;;;;;23.65;3.58;;;18.90;91.00;;;;;;5031762;28;20093;-77
2022/05/06 03:19:59;;;;;;;15.32;2.88;;;18.90;91.10;;;;;;5032197;28;20029;-77
2022/05/06 03:22:26;;;;;;;18.63;3.55;;;18.90;91.20;;;;;;5031687;28;20033;-78
2022/05/06 03:24:52;;;;;;;22.20;4.47;;;18.90;91.40;;;;;;5032327;28;20025;-78
2022/05/06 03:30:04;;;;;;;19.13;3.92;;;18.80;91.70;;;;;;5033019;28;20476;-78
2022/05/06 03:32:31;;;;;;;;;;;18.70;91.80;;;;;;5032611;28;20025;-78
2022/05/06 03:34:58;;;;;;;14.45;3.55;;;18.70;91.90;;;;;;5032229;28;20008;-77
2022/05/06 03:37:25;;;;;;;15.52;3.10;;;18.70;92.00;;;;;;5032670;28;20036;-77
2022/05/06 03:39:51;;;;;;;21.10;3.38;;;18.70;92.10;;;;;;5030458;28;20105;-77
2022/05/06 03:42:17;;;;;;;25.03;4.33;;;18.70;92.10;;;;;;5030536;28;20033;-77
2022/05/06 03:44:43;;;;;;;18.23;3.23;;;18.70;92.20;;;;;;5032354;28;20270;-77
2022/05/06 03:47:09;;;;;;;21.95;4.18;;;18.60;92.30;;;;;;5032287;28;20022;-77
2022/05/06 03:49:35;;;;;;;23.63;4.17;;;18.60;92.50;;;;;;5032167;28;20017;-77
2022/05/06 03:52:01;;;;;;;21.33;3.53;;;18.60;92.40;;;;;;5032162;28;20260;-77
2022/05/06 03:54:27;;;;;;;16.08;3.50;;;18.60;92.60;;;;;;5031996;28;20037;-78
2022/05/06 03:56:53;;;;;;;25.07;3.77;;;18.50;92.70;;;;;;5032401;28;20024;-77
2022/05/06 03:59:19;;;;;;;28.23;4.40;;;18.50;92.80;;;;;;5031936;28;20276;-78
2022/05/06 04:01:45;;;;;;;29.87;4.43;;;18.50;93.00;;;;;;5032291;28;20041;-77
2022/05/06 04:04:11;;;;;;;21.63;3.55;;;18.50;93.10;;;;;;5031197;28;20128;-77
2022/05/06 04:06:37;;;;;;;24.02;4.45;;;18.50;93.20;;;;;;5031272;28;20018;-78
2022/05/06 04:09:04;;;;;;;23.13;4.23;;;18.40;93.20;;;;;;5031391;28;20028;-77
2022/05/06 04:11:30;;;;;;;19.40;3.85;;;18.40;93.40;;;;;;5031510;28;20108;-78
2022/05/06 04:13:56;;;;;;;22.17;4.00;;;18.40;93.50;;;;;;5031637;28;20120;-79
2022/05/06 04:16:24;;;;;;;23.50;4.17;;;18.40;93.70;;;;;;5031270;28;20268;-77
2022/05/06 04:18:50;;;;;;;20.52;3.30;;;18.40;93.70;;;;;;5031809;28;20033;-77
2022/05/06 04:24:01;;;;;;;30.20;4.90;;;18.40;94.00;;;;;;5032192;28;20043;-77
2022/05/06 04:26:27;;;;;;;18.13;3.67;;;18.40;94.10;;;;;;5035630;28;20017;-77
2022/05/06 04:28:53;;;;;;;34.30;4.90;;;18.40;94.40;;;;;;5040275;28;20086;-72
2022/05/06 04:31:19;;;;;;;27.73;6.17;;;18.30;94.50;;;;;;5049294;28;20028;-76
2022/05/06 04:33:45;;;;;;;20.30;4.55;;;18.40;94.80;;;;;;5056050;28;20040;-77
2022/05/06 04:36:11;;;;;;;34.00;5.83;;;18.40;94.60;;;;;;5045249;28;20029;-73
2022/05/06 04:38:37;;;;;;;20.15;4.55;;;18.30;94.70;;;;;;5036575;28;20057;-77
2022/05/06 04:41:03;;;;;;;25.52;4.55;;;18.40;94.70;;;;;;5042956;28;20025;-76
2022/05/06 04:43:30;;;;;;;30.17;4.90;;;18.40;94.70;;;;;;5055712;28;20457;-77
2022/05/06 04:45:56;;;;;;;31.55;5.50;;;18.30;94.90;;;;;;5054305;28;20299;-77
2022/05/06 04:48:23;;;;;;;25.17;4.68;;;18.40;95.00;;;;;;5054258;28;20036;-79
2022/05/06 04:50:49;;;;;;;22.95;4.53;;;18.50;95.20;;;;;;5054536;28;20021;-76
2022/05/06 04:53:16;;;;;;;26.08;4.60;;;18.40;95.30;;;;;;5055641;28;20575;-77
2022/05/06 04:55:46;;;;;;;30.98;4.60;;;18.40;95.40;;;;;;5056109;28;20103;-76
2022/05/06 04:58:14;;;;;;;26.20;5.22;;;18.50;95.60;;;;;;5054146;28;20025;-77
2022/05/06 05:00:40;;;;;;;31.67;4.55;;;18.50;95.60;;;;;;5054239;28;20412;-77
2022/05/06 05:03:07;;;;;;;28.23;4.93;;;18.50;95.80;;;;;;5053889;28;20191;-78
2022/05/06 05:05:33;;;;;;;29.35;4.55;;;18.40;96.10;;;;;;5054493;28;20056;-78
2022/05/06 05:07:59;;;;;;;34.65;5.60;;;18.40;96.40;;;;;;5055598;28;20134;-77
2022/05/06 05:10:25;;;;;;;23.90;4.45;;;18.30;96.70;;;;;;5055356;28;20441;-78
2022/05/06 05:12:52;;;;;;;22.55;4.43;;;18.30;97.00;;;;;;5054733;28;20170;-78
2022/05/06 05:15:18;;;;;;;32.38;5.05;;;18.20;97.20;;;;;;5055027;28;20322;-78
2022/05/06 05:17:45;;;;;;;28.20;5.43;;;18.10;97.40;;;;;;5055107;28;20037;-78
2022/05/06 05:20:11;;;;;;;;;;;18.20;97.60;;;;;;5055726;28;20025;-77
2022/05/06 05:22:46;;;;;;;27.48;4.38;;;18.20;97.80;;;;;;5054058;28;19911;-78
2022/05/06 05:25:12;;;;;;;28.10;4.78;;;18.10;98.20;;;;;;5055705;28;20120;-78
2022/05/06 05:27:39;;;;;;;15.67;3.73;;;18.10;98.50;;;;;;5054922;28;20447;-79
2022/05/06 05:30:08;;;;;;;28.60;5.47;;;18.10;98.80;;;;;;5052966;28;20032;-78
2022/05/06 05:32:34;;;;;;;28.83;5.97;;;18.00;99.10;;;;;;5054395;28;20029;-78
2022/05/06 05:35:01;;;;;;;31.38;5.45;;;17.90;99.50;;;;;;5055567;28;20077;-78
2022/05/06 05:37:33;;;;;;;20.33;4.70;;;17.90;99.80;;;;;;5055575;28;20017;-75
2022/05/06 05:39:59;;;;;;;25.23;5.10;;;18.00;99.90;;;;;;5055051;28;20130;-77
2022/05/06 05:42:28;;;;;;;32.80;4.80;;;18.00;99.90;;;;;;5054696;28;20510;-78
2022/05/06 05:50:23;;;;;;;35.92;5.80;;;18.00;99.90;;;;;;5051018;28;20079;-77
2022/05/06 05:52:50;;;;;;;37.10;5.45;;;18.00;99.90;;;;;;5053291;28;20099;-78
2022/05/06 05:55:17;;;;;;;32.47;6.03;;;18.00;99.90;;;;;;5044660;28;20079;-78
2022/05/06 05:57:46;;;;;;;30.60;5.50;;;18.00;99.90;;;;;;5033250;28;20079;-78
2022/05/06 06:00:12;;;;;;;30.50;4.95;;;17.90;99.90;;;;;;5033242;28;20056;-79
2022/05/06 06:02:38;;;;;;;32.92;5.65;;;17.90;99.90;;;;;;5032130;28;20032;-80
2022/05/06 06:05:05;;;;;;;37.60;6.72;;;17.90;99.90;;;;;;5032897;28;20064;-79
2022/05/06 06:07:32;;;;;;;35.45;7.43;;;17.90;99.90;;;;;;5033311;28;20018;-80
2022/05/06 06:09:57;;;;;;;;;;;17.90;99.90;;;;;;5033095;28;20029;-80
2022/05/06 06:12:23;;;;;;;36.50;5.53;;;17.90;99.90;;;;;;5032842;28;19975;-81
2022/05/06 06:14:50;;;;;;;41.60;6.70;;;18.00;99.90;;;;;;5052063;28;20154;-82
2022/05/06 06:17:16;;;;;;;29.52;5.97;;;17.90;99.90;;;;;;5053266;28;20048;-82
2022/05/06 06:19:42;;;;;;;33.78;6.28;;;18.00;99.90;;;;;;5053355;28;20017;-83
2022/05/06 06:22:08;;;;;;;22.57;5.60;;;18.00;99.90;;;;;;5053490;28;20021;-81
2022/05/06 06:24:34;;;;;;;42.70;6.80;;;18.00;99.90;;;;;;5054190;28;20058;-81
2022/05/06 06:27:00;;;;;;;37.53;7.13;;;18.00;99.90;;;;;;5053312;28;20333;-79
2022/05/06 06:29:26;;;;;;;24.97;5.20;;;18.00;99.90;;;;;;5053419;28;20025;-80
2022/05/06 06:31:53;;;;;;;41.58;6.80;;;18.00;99.90;;;;;;5052949;28;20781;-83
2022/05/06 06:34:19;;;;;;;34.87;6.40;;;17.90;99.90;;;;;;5039972;28;20033;-84
2022/05/06 06:36:45;;;;;;;38.03;6.82;;;18.00;99.90;;;;;;5033771;28;20684;-82
2022/05/06 06:39:11;;;;;;;48.00;7.23;;;17.90;99.90;;;;;;5040674;28;20485;-79
2022/05/06 06:41:37;;;;;;;38.37;6.80;;;17.90;99.90;;;;;;5051392;28;20239;-81
2022/05/06 06:44:03;;;;;;;36.43;6.87;;;17.90;99.90;;;;;;5052894;28;20263;-81
2022/05/06 06:46:32;;;;;;;41.80;7.47;;;17.90;99.90;;;;;;5053016;28;20033;-80
2022/05/06 06:48:58;;;;;;;32.72;6.70;;;17.90;99.90;;;;;;5053267;28;20430;-80
2022/05/06 06:51:24;;;;;;;34.53;6.88;;;18.00;99.90;;;;;;5052581;28;20079;-77
2022/05/06 06:53:53;;;;;;;34.50;7.13;;;18.00;99.90;;;;;;5052538;28;20123;-76
2022/05/06 06:56:21;;;;;;;40.13;8.40;;;18.00;99.90;;;;;;5052745;28;20025;-77
2022/05/06 06:58:47;;;;;;;46.15;7.03;;;18.00;99.90;;;;;;5052234;28;20032;-77
2022/05/06 07:01:13;;;;;;;29.23;6.15;;;18.00;99.90;;;;;;5052876;28;20039;-78
2022/05/06 07:03:39;;;;;;;33.35;7.15;;;18.10;99.90;;;;;;5051103;28;20059;-79
2022/05/06 07:14:21;;;;;;;39.80;7.82;;;18.00;99.90;;;;;;5052740;28;20067;-79
2022/05/06 07:16:52;;;;;;;30.95;7.28;;;18.10;99.90;;;;;;5052447;28;20028;-79
2022/05/06 07:19:20;;;;;;;47.33;8.70;;;18.10;99.90;;;;;;5052564;28;20104;-77
2022/05/06 07:21:46;;;;;;;40.60;7.07;;;18.00;99.90;;;;;;5052200;28;20096;-78
2022/05/06 07:24:12;;;;;;;42.63;7.93;;;17.90;99.90;;;;;;5052598;28;20483;-77
2022/05/06 07:26:38;;;;;;;44.77;7.97;;;18.00;99.90;;;;;;5052081;28;20025;-78
2022/05/06 07:29:04;;;;;;;40.15;7.32;;;18.00;99.90;;;;;;5052282;28;20776;-76
2022/05/06 07:31:31;;;;;;;52.45;8.45;;;18.10;99.90;;;;;;5052198;28;20388;-77
2022/05/06 07:33:57;;;;;;;45.83;8.48;;;18.10;99.90;;;;;;5052209;28;20033;-77
2022/05/06 07:36:23;;;;;;;48.85;7.68;;;18.10;99.90;;;;;;5052242;28;20028;-77
2022/05/06 07:38:50;;;;;;;39.25;7.35;;;18.10;99.90;;;;;;5051880;28;20385;-77
2022/05/06 07:41:16;;;;;;;44.03;8.27;;;18.10;99.90;;;;;;5051607;28;20033;-77
2022/05/06 07:43:42;;;;;;;53.15;8.63;;;18.10;99.90;;;;;;5052029;28;20032;-77
2022/05/06 07:46:11;;;;;;;43.20;8.23;;;18.10;99.90;;;;;;5051583;28;20053;-76
2022/05/06 07:48:38;;;;;;;42.65;8.32;;;18.10;99.90;;;;;;5051731;28;20056;-76
2022/05/06 07:51:04;;;;;;;;;;;18.00;99.90;;;;;;5049593;28;20025;-77
2022/05/06 07:53:30;;;;;;;37.65;7.05;;;17.90;99.90;;;;;;5050566;28;20356;-77
2022/05/06 07:55:56;;;;;;;38.90;7.00;;;17.90;99.90;;;;;;5050652;28;20021;-77
2022/05/06 07:58:23;;;;;;;42.03;8.25;;;17.80;99.90;;;;;;5049240;28;20029;-77
2022/05/06 08:00:50;;;;;;;;;;;17.90;99.90;;;;;;5048860;28;20017;-78
2022/05/06 08:06:02;;;;;;;42.22;7.85;;;17.90;99.90;;;;;;5050861;28;20072;-77
2022/05/06 08:08:29;;;;;;;;;;;18.00;99.90;;;;;;5051516;28;20029;-77
2022/05/06 08:10:54;;;;;;;;;;;17.90;99.90;;;;;;5051150;28;19912;-77
2022/05/06 08:13:21;;;;;;;53.72;9.10;;;17.90;99.90;;;;;;5050709;28;19916;-76
2022/05/06 08:15:49;;;;;;;41.95;7.32;;;17.90;99.90;;;;;;5050447;28;20150;-77
2022/05/06 08:18:16;;;;;;;44.67;7.45;;;17.90;99.90;;;;;;5051426;28;20055;-77
2022/05/06 08:20:42;;;;;;;44.13;7.63;;;17.70;99.90;;;;;;5051306;28;20096;-74
2022/05/06 08:23:08;;;;;;;42.60;7.57;;;17.70;99.90;;;;;;5048873;28;20116;-74
2022/05/06 08:25:35;;;;;;;49.80;10.25;;;17.60;99.90;;;;;;5040940;28;20075;-76
2022/05/06 08:28:01;;;;;;;51.97;8.25;;;17.60;99.90;;;;;;5032463;28;20068;-75
2022/05/06 08:30:27;;;;;;;49.13;9.10;;;17.50;99.90;;;;;;5039189;28;20099;-75
2022/05/06 08:32:53;;;;;;;47.20;8.50;;;17.50;99.90;;;;;;5050621;28;20037;-75
2022/05/06 08:35:19;;;;;;;45.40;7.38;;;17.40;99.90;;;;;;5051723;28;20033;-78
2022/05/06 08:37:47;;;;;;;44.40;8.52;;;17.40;99.90;;;;;;5051800;28;20072;-77
2022/05/06 08:40:25;;;;;;;50.33;9.57;;;17.40;99.90;;;;;;5050535;28;20035;-77
2022/05/06 08:42:58;;;;;;;33.08;7.22;;;17.60;99.90;;;;;;5051700;28;20107;-77
2022/05/06 08:50:59;;;;;;;42.13;8.88;;;17.80;99.90;;;;;;5051623;28;20059;-77
2022/05/06 08:53:32;;;;;;;31.60;6.65;;;18.10;99.90;;;;;;5051026;28;20029;-76
2022/05/06 08:56:00;;;;;;;44.00;8.32;;;18.30;99.90;;;;;;5032979;28;20425;-78
2022/05/06 08:58:28;;;;;;;37.92;7.90;;;18.30;99.90;;;;;;5050552;28;20038;-74
2022/05/06 09:01:23;;;;;;;34.80;7.28;;;18.40;99.90;;;;;;5051271;28;20112;-78
2022/05/06 09:03:50;;;;;;;28.58;6.32;;;18.60;99.90;;;;;;5049745;28;20049;-77
2022/05/06 09:06:21;;;;;;;33.90;6.90;;;18.70;99.90;;;;;;5051381;28;20059;-80
2022/05/06 09:08:50;;;;;;;36.35;7.00;;;18.70;99.90;;;;;;5050063;28;20051;-78
2022/05/06 09:14:07;;;;;;;35.17;7.50;;;18.40;99.90;;;;;;5055125;28;20044;-78
2022/05/06 09:16:39;;;;;;;36.50;6.47;;;18.20;99.90;;;;;;5054644;28;20021;-79
2022/05/06 09:19:12;;;;;;;35.63;7.22;;;18.00;99.90;;;;;;5054710;28;20025;-79
2022/05/06 09:21:41;;;;;;;32.17;6.93;;;17.90;99.90;;;;;;5054903;28;20109;-79
2022/05/06 09:24:17;;;;;;;35.47;7.40;;;17.90;99.90;;;;;;5054270;28;20097;-78
2022/05/06 09:26:57;;;;;;;36.65;7.35;;;17.90;99.90;;;;;;5054546;28;20028;-78
2022/05/06 09:29:34;;;;;;;33.60;7.35;;;17.80;99.90;;;;;;5053466;28;20021;-78
2022/05/06 09:32:26;;;;;;;30.42;6.60;;;17.90;99.90;;;;;;5054409;28;20025;-79
2022/05/06 09:34:55;;;;;;;40.25;7.72;;;17.90;99.90;;;;;;5054987;28;20036;-79
2022/05/06 09:37:43;;;;;;;40.30;7.57;;;18.00;99.90;;;;;;5054926;28;20186;-78
2022/05/06 09:40:13;;;;;;;35.40;7.50;;;18.10;99.90;;;;;;5055162;28;20361;-79
2022/05/06 09:43:07;;;;;;;41.78;7.95;;;18.20;99.90;;;;;;5054948;28;20040;-77
2022/05/06 09:45:37;;;;;;;33.17;6.95;;;18.30;99.90;;;;;;5053790;28;20080;-77
2022/05/06 09:48:05;;;;;;;36.28;7.05;;;18.40;99.90;;;;;;5053397;28;20029;-76
2022/05/06 09:50:42;;;;;;;47.25;8.35;;;18.40;99.90;;;;;;5052197;28;20094;-77
2022/05/06 09:53:16;;;;;;;35.75;7.45;;;18.40;99.90;;;;;;5053628;28;20398;-75
2022/05/06 09:55:47;;;;;;;41.47;8.30;;;18.50;99.90;;;;;;5053540;28;20035;-75
2022/05/06 09:58:15;;;;;;;31.40;8.10;;;18.60;99.90;;;;;;5052930;28;20163;-77
2022/05/06 10:00:42;;;;;;;40.63;8.00;;;18.60;99.90;;;;;;5052844;28;20138;-76
2022/05/06 10:03:11;;;;;;;46.47;8.18;;;18.60;99.90;;;;;;5051156;28;20115;-76
2022/05/06 10:05:39;;;;;;;46.75;8.05;;;18.50;99.90;;;;;;5051211;28;20389;-78
2022/05/06 10:08:14;;;;;;;45.85;8.57;;;18.40;99.90;;;;;;5051651;28;20032;-77
2022/05/06 10:10:47;;;;;;;42.67;8.27;;;18.40;99.90;;;;;;5052494;28;20021;-77
2022/05/06 10:13:19;;;;;;;45.33;9.32;;;18.40;99.90;;;;;;5052319;28;20045;-70
2022/05/06 10:15:49;;;;;;;38.00;7.72;;;18.30;99.90;;;;;;5046155;28;20509;-77
2022/05/06 10:18:41;;;;;;;47.42;8.50;;;18.20;99.90;;;;;;5050808;28;20168;-75
2022/05/06 10:21:09;;;;;;;43.58;8.23;;;18.20;99.90;;;;;;5037798;28;20040;-75
2022/05/06 10:23:50;;;;;;;41.08;7.70;;;18.20;99.90;;;;;;5051723;28;20029;-75
2022/05/06 10:27:04;;;;;;;45.50;7.85;;;18.20;99.90;;;;;;5050780;28;20033;-75
2022/05/06 10:32:27;;;;;;;51.33;8.68;;;18.30;99.90;;;;;;5052391;28;20040;-76
2022/05/06 10:34:56;;;;;;;49.22;8.95;;;18.30;99.90;;;;;;5052437;28;20449;-75
2022/05/06 10:37:23;;;;;;;53.65;9.52;;;18.30;99.90;;;;;;5052847;28;20024;-75
2022/05/06 10:39:49;;;;;;;52.85;10.15;;;18.30;99.90;;;;;;5052981;28;20350;-76
2022/05/06 10:42:16;;;;;;;57.83;8.88;;;18.30;99.90;;;;;;5052119;28;20024;-76
2022/05/06 10:44:48;;;;;;;50.05;8.88;;;18.20;99.90;;;;;;5052273;28;20041;-76
2022/05/06 10:47:14;;;;;;;52.13;9.30;;;18.30;99.90;;;;;;5052741;28;20017;-76
2022/05/06 10:49:40;;;;;;;50.63;9.63;;;18.30;99.90;;;;;;5052268;28;20044;-76
2022/05/06 10:52:23;;;;;;;52.90;9.23;;;18.40;99.90;;;;;;5051511;28;20021;-76
2022/05/06 10:54:50;;;;;;;45.22;8.00;;;18.50;99.90;;;;;;5052697;28;20342;-76
2022/05/06 10:57:20;;;;;;;37.78;7.95;;;18.50;99.90;;;;;;5052276;28;20029;-76
2022/05/06 10:59:55;;;;;;;54.58;9.02;;;18.70;99.90;;;;;;5051849;28;20112;-76
2022/05/06 11:02:27;;;;;;;47.50;8.68;;;18.70;99.90;;;;;;5052058;28;20056;-76
2022/05/06 11:04:55;;;;;;;43.17;8.30;;;18.70;99.90;;;;;;5051904;28;20056;-76
2022/05/06 11:07:21;;;;;;;41.35;8.50;;;18.70;99.90;;;;;;5050547;28;20471;-74
2022/05/06 11:09:48;;;;;;;52.63;8.88;;;18.80;99.90;;;;;;5051713;28;20052;-77
2022/05/06 11:12:30;;;;;;;51.83;9.20;;;18.80;99.90;;;;;;5051775;28;20037;-76
2022/05/06 11:15:02;;;;;;;51.50;8.82;;;18.70;99.90;;;;;;5051341;28;20040;-76
2022/05/06 11:17:28;;;;;;;43.78;8.70;;;18.70;99.90;;;;;;5051544;28;20070;-76
2022/05/06 11:19:54;;;;;;;51.42;9.63;;;18.50;99.90;;;;;;5051694;28;20029;-77
2022/05/06 11:22:20;;;;;;;48.03;8.60;;;18.50;99.90;;;;;;5052046;28;20062;-77
2022/05/06 11:24:47;;;;;;;53.80;9.18;;;18.40;99.90;;;;;;5052347;28;20025;-79
2022/05/06 11:27:20;;;;;;;45.25;8.93;;;18.40;99.90;;;;;;5049304;28;20032;-80
2022/05/06 11:29:50;;;;;;;38.58;7.50;;;18.30;99.90;;;;;;5051012;28;20370;-79
2022/05/06 11:32:17;;;;;;;33.63;6.88;;;18.20;99.90;;;;;;5050472;28;20029;-73
2022/05/06 11:35:01;;;;;;;20.92;5.18;;;18.00;99.90;;;;;;5049823;28;20033;-72
2022/05/06 11:37:30;;;;;;;14.25;4.38;;;17.80;99.90;;;;;;5032317;28;20027;-77
2022/05/06 11:42:41;;;;;;;13.30;4.50;;;17.60;99.90;;;;;;5032014;28;20497;-80
2022/05/06 11:48:09;;;;;;;22.25;5.57;;;17.60;99.90;;;;;;5031748;28;20500;-77
2022/05/06 11:50:39;;;;;;;26.40;6.45;;;17.60;99.90;;;;;;5031499;28;20036;-79
2022/05/06 11:53:08;;;;;;;24.02;6.30;;;17.50;99.90;;;;;;5031036;28;20516;-78
2022/05/06 11:55:36;;;;;;;25.27;6.00;;;17.50;99.90;;;;;;5031427;28;20139;-79
2022/05/06 11:58:07;;;;;;;25.13;6.30;;;17.50;99.90;;;;;;5031385;28;20100;-79
2022/05/06 12:00:34;;;;;;;24.17;6.03;;;17.50;99.90;;;;;;5031310;28;20122;-79
2022/05/06 12:03:04;;;;;;;;;;;17.50;99.90;;;;;;5032362;28;20026;-79
2022/05/06 12:05:31;;;;;;;32.03;5.95;;;17.40;99.90;;;;;;5035487;28;19928;-78
2022/05/06 12:07:58;;;;;;;28.75;5.57;;;17.40;99.90;;;;;;5032016;28;20045;-79
2022/05/06 12:10:25;;;;;;;30.43;6.80;;;17.40;99.90;;;;;;5032700;28;20473;-79
2022/05/06 12:12:56;;;;;;;23.67;5.47;;;17.50;99.90;;;;;;5032013;28;20329;-78
2022/05/06 12:15:37;;;;;;;20.77;4.90;;;17.60;99.90;;;;;;5032417;28;20030;-78
2022/05/06 12:18:10;;;;;;;22.20;4.93;;;17.60;99.90;;;;;;5032133;28;20053;-79
2022/05/06 12:20:37;;;;;;;27.63;5.10;;;17.50;99.90;;;;;;5032799;28;20029;-79
2022/05/06 12:23:05;;;;;;;21.25;4.65;;;17.60;99.90;;;;;;5032499;28;20037;-79
2022/05/06 12:25:32;;;;;;;16.02;4.60;;;17.60;99.90;;;;;;5032292;28;20024;-80
2022/05/06 12:28:10;;;;;;;20.48;4.75;;;17.70;99.90;;;;;;5032050;28;20021;-80
2022/05/06 12:30:38;;;;;;;17.42;4.18;;;17.70;99.90;;;;;;5032615;28;20066;-80
2022/05/06 12:33:08;;;;;;;21.92;4.68;;;17.70;99.90;;;;;;5030809;28;20125;-80
2022/05/06 12:35:57;;;;;;;20.40;4.53;;;17.70;99.90;;;;;;5033341;28;20385;-79
2022/05/06 12:38:43;;;;;;;19.67;5.07;;;17.70;99.90;;;;;;5051611;28;20353;-78
2022/05/06 12:41:34;;;;;;;17.98;4.30;;;17.80;99.90;;;;;;5040375;28;20108;-80
2022/05/06 12:44:21;;;;;;;17.40;4.05;;;17.80;99.90;;;;;;5036277;28;20029;-80
2022/05/06 12:46:49;;;;;;;26.65;5.05;;;17.80;99.90;;;;;;5054192;28;20222;-80
2022/05/06 12:52:04;;;;;;;22.17;4.38;;;17.80;99.90;;;;;;5036372;28;20087;-77
2022/05/06 12:54:30;;;;;;;25.10;4.43;;;18.00;99.90;;;;;;5035743;28;20158;-76
2022/05/06 12:56:57;;;;;;;18.77;4.05;;;18.10;99.90;;;;;;5036274;28;20206;-76
2022/05/06 12:59:23;;;;;;;17.05;3.88;;;18.30;99.90;;;;;;5036315;28;20030;-76
2022/05/06 13:01:50;;;;;;;23.25;3.95;;;18.40;99.90;;;;;;5035936;28;20052;-76
2022/05/06 13:04:18;;;;;;;;;;;18.60;99.90;;;;;;5036641;28;20045;-71
2022/05/06 13:06:45;;;;;;;14.52;3.85;;;18.70;99.90;;;;;;5054571;28;19909;-74
2022/05/06 13:09:12;;;;;;;18.33;3.40;;;18.60;99.90;;;;;;5054062;28;20029;-70
2022/05/06 13:11:39;;;;;;;15.55;3.53;;;18.50;99.90;;;;;;5051621;28;20043;-78
2022/05/06 13:14:07;;;;;;;21.55;4.47;;;18.40;99.90;;;;;;5053950;28;20025;-74
2022/05/06 13:16:35;;;;;;;14.13;3.15;;;18.40;99.90;;;;;;5053989;28;20382;-77
2022/05/06 13:19:03;;;;;;;18.55;3.78;;;18.40;99.90;;;;;;5053752;28;20049;-75
2022/05/06 13:21:29;;;;;;;15.90;3.80;;;18.40;99.90;;;;;;5051959;28;20540;-71
2022/05/06 13:23:55;;;;;;;19.85;3.53;;;18.40;99.90;;;;;;5054033;28;20059;-79
2022/05/06 13:26:21;;;;;;;16.33;3.92;;;18.50;99.90;;;;;;5054667;28;20029;-75
2022/05/06 13:28:47;;;;;;;21.45;4.28;;;18.30;99.90;;;;;;5054857;28;20025;-76
2022/05/06 13:31:16;;;;;;;19.30;3.88;;;18.40;99.90;;;;;;5053926;28;20110;-73
2022/05/06 13:33:42;;;;;;;15.25;3.58;;;18.60;99.90;;;;;;5054825;28;20055;-76